sensor_id;sensor_type;location;lat;lon;timestamp;P1;durP1;ratioP1;P2;durP2;ratioP2
58512;SDS011;44302;47.914;10.642;2023-03-04T06:53:18;68.73;;;12.70;;
58512;SDS011;44302;47.914;10.642;2023-03-04T06:59:44;72.30;;;18.73;;
58512;SDS011;44302;47.914;10.642;2023-03-04T07:40:19;34.20;;;18.40;;
58512;SDS011;44302;47.914;10.642;2023-03-04T07:44:34;36.93;;;21.63;;
58512;SDS011;44302;47.914;10.642;2023-03-04T07:48:35;48.63;;;21.43;;
58512;SDS011;44302;47.914;10.642;2023-03-04T07:52:42;63.93;;;28.73;;
58512;SDS011;44302;47.914;10.642;2023-03-04T07:55:11;43.27;;;23.37;;
58512;SDS011;44302;47.914;10.642;2023-03-04T07:57:38;45.47;;;20.20;;
58512;SDS011;44302;47.914;10.642;2023-03-04T08:00:08;52.00;;;21.07;;
58512;SDS011;44302;47.914;10.642;2023-03-04T08:02:34;46.97;;;22.13;;
58512;SDS011;44302;47.914;10.642;2023-03-04T08:05:00;42.93;;;22.27;;
58512;SDS011;44302;47.914;10.642;2023-03-04T08:07:26;57.67;;;23.60;;
58512;SDS011;44302;47.914;10.642;2023-03-04T08:09:51;64.57;;;24.33;;
58512;SDS011;44302;47.914;10.642;2023-03-04T08:12:17;42.77;;;23.30;;
58512;SDS011;44302;47.914;10.642;2023-03-04T08:14:43;47.10;;;24.20;;
58512;SDS011;44302;47.914;10.642;2023-03-04T08:17:09;46.50;;;24.33;;
58512;SDS011;44302;47.914;10.642;2023-03-04T08:19:34;37.17;;;22.57;;
58512;SDS011;44302;47.914;10.642;2023-03-04T08:22:01;51.13;;;24.07;;
58512;SDS011;44302;47.914;10.642;2023-03-04T08:24:27;57.63;;;25.83;;
58512;SDS011;44302;47.914;10.642;2023-03-04T08:26:53;48.27;;;26.07;;
58512;SDS011;44302;47.914;10.642;2023-03-04T08:29:20;42.53;;;24.93;;
58512;SDS011;44302;47.914;10.642;2023-03-04T08:31:47;48.40;;;26.27;;
58512;SDS011;44302;47.914;10.642;2023-03-04T08:34:13;45.53;;;25.13;;
58512;SDS011;44302;47.914;10.642;2023-03-04T08:36:40;45.33;;;26.13;;
58512;SDS011;44302;47.914;10.642;2023-03-04T08:39:11;49.87;;;27.37;;
58512;SDS011;44302;47.914;10.642;2023-03-04T08:41:37;49.70;;;26.37;;
58512;SDS011;44302;47.914;10.642;2023-03-04T08:44:03;50.80;;;27.63;;
58512;SDS011;44302;47.914;10.642;2023-03-04T08:46:30;44.80;;;26.70;;
58512;SDS011;44302;47.914;10.642;2023-03-04T08:48:55;48.23;;;26.50;;
58512;SDS011;44302;47.914;10.642;2023-03-04T08:51:21;49.10;;;27.77;;
58512;SDS011;44302;47.914;10.642;2023-03-04T08:53:47;48.07;;;28.73;;
58512;SDS011;44302;47.914;10.642;2023-03-04T08:56:13;46.80;;;27.37;;
58512;SDS011;44302;47.914;10.642;2023-03-04T08:58:39;50.57;;;28.40;;
58512;SDS011;44302;47.914;10.642;2023-03-04T09:01:09;46.00;;;25.77;;
58512;SDS011;44302;47.914;10.642;2023-03-04T09:03:36;47.73;;;27.87;;
58512;SDS011;44302;47.914;10.642;2023-03-04T09:06:02;45.27;;;26.37;;
58512;SDS011;44302;47.914;10.642;2023-03-04T09:08:29;48.37;;;27.40;;
58512;SDS011;44302;47.914;10.642;2023-03-04T09:10:55;47.27;;;27.73;;
58512;SDS011;44302;47.914;10.642;2023-03-04T09:13:23;46.53;;;26.57;;
58512;SDS011;44302;47.914;10.642;2023-03-04T09:15:50;48.00;;;27.80;;
58512;SDS011;44302;47.914;10.642;2023-03-04T09:18:17;45.80;;;26.13;;
58512;SDS011;44302;47.914;10.642;2023-03-04T09:20:44;44.53;;;26.43;;
58512;SDS011;44302;47.914;10.642;2023-03-04T09:23:10;51.53;;;29.83;;
58512;SDS011;44302;47.914;10.642;2023-03-04T09:25:36;49.87;;;28.67;;
58512;SDS011;44302;47.914;10.642;2023-03-04T09:28:03;55.00;;;31.07;;
58512;SDS011;44302;47.914;10.642;2023-03-04T09:30:30;53.03;;;32.30;;
58512;SDS011;44302;47.914;10.642;2023-03-04T09:32:56;47.90;;;30.30;;
58512;SDS011;44302;47.914;10.642;2023-03-04T09:35:22;46.53;;;28.13;;
58512;SDS011;44302;47.914;10.642;2023-03-04T09:37:48;48.57;;;29.80;;
58512;SDS011;44302;47.914;10.642;2023-03-04T09:40:26;42.93;;;27.77;;
58512;SDS011;44302;47.914;10.642;2023-03-04T09:42:56;49.97;;;30.03;;
58512;SDS011;44302;47.914;10.642;2023-03-04T09:46:12;43.60;;;27.73;;
58512;SDS011;44302;47.914;10.642;2023-03-04T09:48:20;52.27;;;29.87;;
58512;SDS011;44302;47.914;10.642;2023-03-04T09:50:56;52.23;;;28.67;;
58512;SDS011;44302;47.914;10.642;2023-03-04T09:53:52;54.20;;;30.77;;
58512;SDS011;44302;47.914;10.642;2023-03-04T09:56:20;50.97;;;29.63;;
58512;SDS011;44302;47.914;10.642;2023-03-04T09:58:56;50.20;;;30.07;;
58512;SDS011;44302;47.914;10.642;2023-03-04T10:01:53;53.27;;;31.40;;
58512;SDS011;44302;47.914;10.642;2023-03-04T10:04:25;45.43;;;28.07;;
58512;SDS011;44302;47.914;10.642;2023-03-04T10:07:05;46.77;;;28.87;;
58512;SDS011;44302;47.914;10.642;2023-03-04T10:09:49;47.83;;;27.47;;
58512;SDS011;44302;47.914;10.642;2023-03-04T10:12:22;43.37;;;28.00;;
58512;SDS011;44302;47.914;10.642;2023-03-04T10:15:00;45.03;;;28.27;;
58512;SDS011;44302;47.914;10.642;2023-03-04T10:17:48;43.03;;;27.13;;
58512;SDS011;44302;47.914;10.642;2023-03-04T10:20:22;49.40;;;29.07;;
58512;SDS011;44302;47.914;10.642;2023-03-04T10:22:51;46.30;;;29.17;;
58512;SDS011;44302;47.914;10.642;2023-03-04T10:25:23;48.03;;;29.23;;
58512;SDS011;44302;47.914;10.642;2023-03-04T10:27:55;53.73;;;32.63;;
58512;SDS011;44302;47.914;10.642;2023-03-04T10:33:16;44.70;;;28.27;;
58512;SDS011;44302;47.914;10.642;2023-03-04T10:35:44;50.77;;;30.00;;
58512;SDS011;44302;47.914;10.642;2023-03-04T10:38:35;54.70;;;29.67;;
58512;SDS011;44302;47.914;10.642;2023-03-04T10:41:17;48.10;;;31.13;;
58512;SDS011;44302;47.914;10.642;2023-03-04T10:43:59;51.57;;;31.80;;
58512;SDS011;44302;47.914;10.642;2023-03-04T10:46:27;53.27;;;31.43;;
58512;SDS011;44302;47.914;10.642;2023-03-04T10:48:53;52.30;;;31.93;;
58512;SDS011;44302;47.914;10.642;2023-03-04T10:51:21;51.13;;;32.87;;
58512;SDS011;44302;47.914;10.642;2023-03-04T10:53:55;55.27;;;33.40;;
58512;SDS011;44302;47.914;10.642;2023-03-04T10:56:34;57.30;;;33.50;;
58512;SDS011;44302;47.914;10.642;2023-03-04T11:01:58;55.17;;;32.90;;
58512;SDS011;44302;47.914;10.642;2023-03-04T11:04:26;55.77;;;33.07;;
58512;SDS011;44302;47.914;10.642;2023-03-04T11:06:56;60.07;;;35.40;;
58512;SDS011;44302;47.914;10.642;2023-03-04T11:09:24;55.57;;;34.17;;
58512;SDS011;44302;47.914;10.642;2023-03-04T11:11:52;53.73;;;33.17;;
58512;SDS011;44302;47.914;10.642;2023-03-04T11:16:52;59.97;;;36.87;;
58512;SDS011;44302;47.914;10.642;2023-03-04T11:19:30;59.37;;;36.73;;
58512;SDS011;44302;47.914;10.642;2023-03-04T11:22:02;57.13;;;36.40;;
58512;SDS011;44302;47.914;10.642;2023-03-04T11:24:30;55.80;;;34.90;;
58512;SDS011;44302;47.914;10.642;2023-03-04T11:27:00;58.50;;;36.60;;
58512;SDS011;44302;47.914;10.642;2023-03-04T11:29:32;58.93;;;37.47;;
58512;SDS011;44302;47.914;10.642;2023-03-04T11:34:55;55.67;;;37.13;;
58512;SDS011;44302;47.914;10.642;2023-03-04T11:37:43;60.43;;;37.73;;
58512;SDS011;44302;47.914;10.642;2023-03-04T11:40:22;60.40;;;35.33;;
58512;SDS011;44302;47.914;10.642;2023-03-04T11:51:31;57.30;;;35.23;;
58512;SDS011;44302;47.914;10.642;2023-03-04T11:56:46;53.00;;;32.83;;
58512;SDS011;44302;47.914;10.642;2023-03-04T12:02:10;46.03;;;30.13;;
58512;SDS011;44302;47.914;10.642;2023-03-04T12:04:48;48.67;;;30.70;;
58512;SDS011;44302;47.914;10.642;2023-03-04T12:07:21;53.13;;;32.47;;
58512;SDS011;44302;47.914;10.642;2023-03-04T12:23:47;49.87;;;31.83;;
58512;SDS011;44302;47.914;10.642;2023-03-04T12:29:10;46.27;;;29.73;;
58512;SDS011;44302;47.914;10.642;2023-03-04T12:31:38;48.37;;;31.87;;
58512;SDS011;44302;47.914;10.642;2023-03-04T12:36:55;42.23;;;28.70;;
58512;SDS011;44302;47.914;10.642;2023-03-04T12:45:45;35.73;;;25.60;;
58512;SDS011;44302;47.914;10.642;2023-03-04T12:49:34;38.87;;;26.33;;
58512;SDS011;44302;47.914;10.642;2023-03-04T12:51:29;36.13;;;25.10;;
58512;SDS011;44302;47.914;10.642;2023-03-04T12:59:18;32.70;;;24.77;;
58512;SDS011;44302;47.914;10.642;2023-03-04T13:04:22;34.30;;;23.10;;
58512;SDS011;44302;47.914;10.642;2023-03-04T13:09:28;33.20;;;24.70;;
58512;SDS011;44302;47.914;10.642;2023-03-04T13:15:13;34.17;;;24.87;;
58512;SDS011;44302;47.914;10.642;2023-03-04T13:17:46;34.70;;;24.63;;
58512;SDS011;44302;47.914;10.642;2023-03-04T13:30:38;37.77;;;26.80;;
58512;SDS011;44302;47.914;10.642;2023-03-04T13:43:38;43.97;;;28.73;;
58512;SDS011;44302;47.914;10.642;2023-03-04T13:51:17;38.20;;;27.43;;
58512;SDS011;44302;47.914;10.642;2023-03-04T13:54:14;42.30;;;26.20;;
58512;SDS011;44302;47.914;10.642;2023-03-04T13:56:44;36.27;;;23.27;;
58512;SDS011;44302;47.914;10.642;2023-03-04T14:04:46;37.10;;;26.57;;
58512;SDS011;44302;47.914;10.642;2023-03-04T14:07:29;36.33;;;24.33;;
58512;SDS011;44302;47.914;10.642;2023-03-04T14:12:56;35.77;;;25.87;;
58512;SDS011;44302;47.914;10.642;2023-03-04T14:15:29;38.30;;;22.30;;
58512;SDS011;44302;47.914;10.642;2023-03-04T14:18:00;37.10;;;24.83;;
58512;SDS011;44302;47.914;10.642;2023-03-04T14:20:31;40.83;;;26.73;;
58512;SDS011;44302;47.914;10.642;2023-03-04T14:23:21;36.37;;;23.73;;
58512;SDS011;44302;47.914;10.642;2023-03-04T14:26:05;36.43;;;26.50;;
58512;SDS011;44302;47.914;10.642;2023-03-04T14:28:46;38.70;;;24.67;;
58512;SDS011;44302;47.914;10.642;2023-03-04T14:31:15;35.43;;;23.80;;
58512;SDS011;44302;47.914;10.642;2023-03-04T14:33:43;35.63;;;24.33;;
58512;SDS011;44302;47.914;10.642;2023-03-04T14:36:17;39.20;;;25.10;;
58512;SDS011;44302;47.914;10.642;2023-03-04T14:38:54;35.47;;;22.87;;
58512;SDS011;44302;47.914;10.642;2023-03-04T14:46:49;31.67;;;21.20;;
58512;SDS011;44302;47.914;10.642;2023-03-04T14:49:19;31.60;;;22.03;;
58512;SDS011;44302;47.914;10.642;2023-03-04T14:51:48;34.03;;;21.83;;
58512;SDS011;44302;47.914;10.642;2023-03-04T14:54:32;40.30;;;23.10;;
58512;SDS011;44302;47.914;10.642;2023-03-04T14:59:46;35.00;;;22.80;;
58512;SDS011;44302;47.914;10.642;2023-03-04T15:02:19;36.30;;;22.47;;
58512;SDS011;44302;47.914;10.642;2023-03-04T15:04:45;34.93;;;22.77;;
58512;SDS011;44302;47.914;10.642;2023-03-04T15:07:16;41.20;;;24.70;;
58512;SDS011;44302;47.914;10.642;2023-03-04T15:09:49;35.83;;;23.77;;
58512;SDS011;44302;47.914;10.642;2023-03-04T15:12:21;35.33;;;22.03;;
58512;SDS011;44302;47.914;10.642;2023-03-04T15:14:58;36.33;;;23.20;;
58512;SDS011;44302;47.914;10.642;2023-03-04T15:22:35;34.17;;;21.87;;
58512;SDS011;44302;47.914;10.642;2023-03-04T15:25:13;36.50;;;22.30;;
58512;SDS011;44302;47.914;10.642;2023-03-04T15:27:39;32.47;;;20.90;;
58512;SDS011;44302;47.914;10.642;2023-03-04T15:30:12;34.10;;;20.37;;
58512;SDS011;44302;47.914;10.642;2023-03-04T15:32:39;29.40;;;19.03;;
58512;SDS011;44302;47.914;10.642;2023-03-04T15:35:05;35.33;;;21.10;;
58512;SDS011;44302;47.914;10.642;2023-03-04T15:37:33;29.23;;;18.73;;
58512;SDS011;44302;47.914;10.642;2023-03-04T15:39:59;31.97;;;19.13;;
58512;SDS011;44302;47.914;10.642;2023-03-04T15:42:26;29.90;;;20.43;;
58512;SDS011;44302;47.914;10.642;2023-03-04T15:44:52;31.23;;;19.63;;
58512;SDS011;44302;47.914;10.642;2023-03-04T15:47:18;30.67;;;19.40;;
58512;SDS011;44302;47.914;10.642;2023-03-04T15:49:44;36.70;;;20.17;;
58512;SDS011;44302;47.914;10.642;2023-03-04T15:52:14;34.17;;;19.67;;
58512;SDS011;44302;47.914;10.642;2023-03-04T15:54:43;31.57;;;19.60;;
58512;SDS011;44302;47.914;10.642;2023-03-04T15:59:47;32.77;;;20.47;;
58512;SDS011;44302;47.914;10.642;2023-03-04T16:02:23;32.10;;;21.13;;
58512;SDS011;44302;47.914;10.642;2023-03-04T16:04:53;29.80;;;19.53;;
58512;SDS011;44302;47.914;10.642;2023-03-04T16:07:20;34.53;;;21.37;;
58512;SDS011;44302;47.914;10.642;2023-03-04T16:09:50;36.00;;;21.80;;
58512;SDS011;44302;47.914;10.642;2023-03-04T16:12:22;32.87;;;19.50;;
58512;SDS011;44302;47.914;10.642;2023-03-04T16:14:50;34.60;;;20.30;;
58512;SDS011;44302;47.914;10.642;2023-03-04T16:17:16;35.67;;;22.53;;
58512;SDS011;44302;47.914;10.642;2023-03-04T16:19:42;31.73;;;20.47;;
58512;SDS011;44302;47.914;10.642;2023-03-04T16:22:11;36.67;;;21.87;;
58512;SDS011;44302;47.914;10.642;2023-03-04T16:24:42;33.30;;;21.43;;
58512;SDS011;44302;47.914;10.642;2023-03-04T16:27:14;34.57;;;19.83;;
58512;SDS011;44302;47.914;10.642;2023-03-04T16:29:42;38.83;;;21.63;;
58512;SDS011;44302;47.914;10.642;2023-03-04T16:32:08;39.03;;;21.90;;
58512;SDS011;44302;47.914;10.642;2023-03-04T16:34:35;35.60;;;22.23;;
58512;SDS011;44302;47.914;10.642;2023-03-04T16:37:02;35.67;;;21.50;;
